sensor_id;sensor_type;location;lat;lon;timestamp;P1;durP1;ratioP1;P2;durP2;ratioP2
29548;SDS011;16487;53.094;8.800;2023-03-01T00:00:42;16.70;;;12.73;;
29548;SDS011;16487;53.094;8.800;2023-03-01T00:03:09;20.17;;;13.50;;
29548;SDS011;16487;53.094;8.800;2023-03-01T00:05:42;19.17;;;13.33;;
29548;SDS011;16487;53.094;8.800;2023-03-01T00:08:10;14.93;;;12.70;;
29548;SDS011;16487;53.094;8.800;2023-03-01T00:10:38;22.57;;;13.10;;
29548;SDS011;16487;53.094;8.800;2023-03-01T00:13:05;15.00;;;11.43;;
29548;SDS011;16487;53.094;8.800;2023-03-01T00:15:32;13.90;;;11.57;;
29548;SDS011;16487;53.094;8.800;2023-03-01T00:18:00;13.33;;;11.30;;
29548;SDS011;16487;53.094;8.800;2023-03-01T00:20:27;15.27;;;11.07;;
29548;SDS011;16487;53.094;8.800;2023-03-01T00:22:56;16.07;;;11.30;;
29548;SDS011;16487;53.094;8.800;2023-03-01T00:25:23;20.07;;;12.57;;
29548;SDS011;16487;53.094;8.800;2023-03-01T00:27:50;14.10;;;11.23;;
29548;SDS011;16487;53.094;8.800;2023-03-01T00:30:19;13.27;;;10.80;;
29548;SDS011;16487;53.094;8.800;2023-03-01T00:32:47;14.83;;;9.90;;
29548;SDS011;16487;53.094;8.800;2023-03-01T00:35:14;14.83;;;10.07;;
29548;SDS011;16487;53.094;8.800;2023-03-01T00:37:41;12.20;;;9.97;;
29548;SDS011;16487;53.094;8.800;2023-03-01T00:40:10;12.07;;;9.57;;
29548;SDS011;16487;53.094;8.800;2023-03-01T00:42:38;11.93;;;9.60;;
29548;SDS011;16487;53.094;8.800;2023-03-01T00:45:06;11.20;;;9.37;;
29548;SDS011;16487;53.094;8.800;2023-03-01T00:47:34;11.87;;;9.37;;
29548;SDS011;16487;53.094;8.800;2023-03-01T00:50:01;12.23;;;9.77;;
29548;SDS011;16487;53.094;8.800;2023-03-01T00:52:29;13.00;;;9.47;;
29548;SDS011;16487;53.094;8.800;2023-03-01T00:54:56;12.83;;;9.57;;
29548;SDS011;16487;53.094;8.800;2023-03-01T00:57:25;12.43;;;10.63;;
29548;SDS011;16487;53.094;8.800;2023-03-01T00:59:52;13.20;;;10.10;;
29548;SDS011;16487;53.094;8.800;2023-03-01T01:02:20;14.67;;;10.93;;
29548;SDS011;16487;53.094;8.800;2023-03-01T01:04:47;16.80;;;10.97;;
29548;SDS011;16487;53.094;8.800;2023-03-01T01:07:15;14.40;;;9.50;;
29548;SDS011;16487;53.094;8.800;2023-03-01T01:09:42;13.80;;;9.77;;
29548;SDS011;16487;53.094;8.800;2023-03-01T01:12:10;12.80;;;10.07;;
29548;SDS011;16487;53.094;8.800;2023-03-01T01:14:38;11.87;;;9.23;;
29548;SDS011;16487;53.094;8.800;2023-03-01T01:17:06;11.77;;;9.97;;
29548;SDS011;16487;53.094;8.800;2023-03-01T01:19:33;16.27;;;11.20;;
29548;SDS011;16487;53.094;8.800;2023-03-01T01:22:00;14.87;;;9.87;;
29548;SDS011;16487;53.094;8.800;2023-03-01T01:24:27;12.97;;;9.93;;
29548;SDS011;16487;53.094;8.800;2023-03-01T01:26:55;11.80;;;9.50;;
29548;SDS011;16487;53.094;8.800;2023-03-01T01:29:22;12.80;;;9.47;;
29548;SDS011;16487;53.094;8.800;2023-03-01T01:31:51;12.73;;;9.37;;
29548;SDS011;16487;53.094;8.800;2023-03-01T01:34:19;11.33;;;9.33;;
29548;SDS011;16487;53.094;8.800;2023-03-01T01:36:48;12.73;;;9.20;;
29548;SDS011;16487;53.094;8.800;2023-03-01T01:39:16;11.97;;;9.40;;
29548;SDS011;16487;53.094;8.800;2023-03-01T01:41:43;14.67;;;9.50;;
29548;SDS011;16487;53.094;8.800;2023-03-01T01:44:15;13.30;;;10.70;;
29548;SDS011;16487;53.094;8.800;2023-03-01T01:46:46;18.10;;;10.57;;
29548;SDS011;16487;53.094;8.800;2023-03-01T01:52:07;12.67;;;10.40;;
29548;SDS011;16487;53.094;8.800;2023-03-01T01:54:42;14.53;;;10.37;;
29548;SDS011;16487;53.094;8.800;2023-03-01T01:57:14;13.17;;;9.87;;
29548;SDS011;16487;53.094;8.800;2023-03-01T01:59:45;12.80;;;10.07;;
29548;SDS011;16487;53.094;8.800;2023-03-01T02:02:17;11.47;;;10.20;;
29548;SDS011;16487;53.094;8.800;2023-03-01T02:04:47;12.30;;;10.20;;
29548;SDS011;16487;53.094;8.800;2023-03-01T02:07:18;12.10;;;10.43;;
29548;SDS011;16487;53.094;8.800;2023-03-01T02:09:48;16.33;;;11.50;;
29548;SDS011;16487;53.094;8.800;2023-03-01T02:12:19;16.90;;;12.10;;
29548;SDS011;16487;53.094;8.800;2023-03-01T02:14:49;16.20;;;11.50;;
29548;SDS011;16487;53.094;8.800;2023-03-01T02:17:17;15.10;;;12.00;;
29548;SDS011;16487;53.094;8.800;2023-03-01T02:19:51;15.63;;;12.57;;
29548;SDS011;16487;53.094;8.800;2023-03-01T02:22:31;17.17;;;11.30;;
29548;SDS011;16487;53.094;8.800;2023-03-01T02:25:02;15.30;;;11.77;;
29548;SDS011;16487;53.094;8.800;2023-03-01T02:27:43;14.80;;;11.07;;
29548;SDS011;16487;53.094;8.800;2023-03-01T02:30:17;16.23;;;12.43;;
29548;SDS011;16487;53.094;8.800;2023-03-01T02:32:45;15.40;;;11.20;;
29548;SDS011;16487;53.094;8.800;2023-03-01T02:35:14;17.20;;;12.20;;
29548;SDS011;16487;53.094;8.800;2023-03-01T02:37:44;16.00;;;11.23;;
29548;SDS011;16487;53.094;8.800;2023-03-01T02:40:13;17.80;;;11.03;;
29548;SDS011;16487;53.094;8.800;2023-03-01T02:42:45;14.93;;;11.30;;
29548;SDS011;16487;53.094;8.800;2023-03-01T02:45:18;16.70;;;12.00;;
29548;SDS011;16487;53.094;8.800;2023-03-01T02:47:46;14.90;;;12.20;;
29548;SDS011;16487;53.094;8.800;2023-03-01T02:50:22;14.80;;;12.50;;
29548;SDS011;16487;53.094;8.800;2023-03-01T02:53:10;15.83;;;10.97;;
29548;SDS011;16487;53.094;8.800;2023-03-01T02:55:39;15.47;;;12.13;;
29548;SDS011;16487;53.094;8.800;2023-03-01T02:58:07;15.30;;;12.03;;
29548;SDS011;16487;53.094;8.800;2023-03-01T03:00:37;17.30;;;11.07;;
29548;SDS011;16487;53.094;8.800;2023-03-01T03:03:07;14.80;;;10.80;;
29548;SDS011;16487;53.094;8.800;2023-03-01T03:05:34;15.60;;;11.93;;
29548;SDS011;16487;53.094;8.800;2023-03-01T03:08:02;13.23;;;11.03;;
29548;SDS011;16487;53.094;8.800;2023-03-01T03:10:37;12.40;;;10.53;;
29548;SDS011;16487;53.094;8.800;2023-03-01T03:13:07;14.87;;;11.50;;
29548;SDS011;16487;53.094;8.800;2023-03-01T03:15:38;13.03;;;10.83;;
29548;SDS011;16487;53.094;8.800;2023-03-01T03:18:07;17.03;;;11.67;;
29548;SDS011;16487;53.094;8.800;2023-03-01T03:20:38;15.03;;;11.10;;
29548;SDS011;16487;53.094;8.800;2023-03-01T03:23:07;14.27;;;11.30;;
29548;SDS011;16487;53.094;8.800;2023-03-01T03:25:35;17.20;;;11.80;;
29548;SDS011;16487;53.094;8.800;2023-03-01T03:28:03;17.70;;;12.00;;
29548;SDS011;16487;53.094;8.800;2023-03-01T03:30:31;16.90;;;11.87;;
29548;SDS011;16487;53.094;8.800;2023-03-01T03:32:59;15.07;;;12.10;;
29548;SDS011;16487;53.094;8.800;2023-03-01T03:35:27;13.90;;;11.10;;
29548;SDS011;16487;53.094;8.800;2023-03-01T03:37:56;14.33;;;11.63;;
29548;SDS011;16487;53.094;8.800;2023-03-01T03:40:25;13.93;;;11.60;;
29548;SDS011;16487;53.094;8.800;2023-03-01T03:42:53;16.40;;;12.00;;
29548;SDS011;16487;53.094;8.800;2023-03-01T03:45:21;14.53;;;11.90;;
29548;SDS011;16487;53.094;8.800;2023-03-01T03:47:48;15.37;;;11.73;;
29548;SDS011;16487;53.094;8.800;2023-03-01T03:50:17;21.97;;;13.93;;
29548;SDS011;16487;53.094;8.800;2023-03-01T03:52:45;18.23;;;13.87;;
29548;SDS011;16487;53.094;8.800;2023-03-01T03:55:12;17.03;;;12.80;;
29548;SDS011;16487;53.094;8.800;2023-03-01T03:57:41;19.27;;;13.87;;
29548;SDS011;16487;53.094;8.800;2023-03-01T04:00:09;15.30;;;11.80;;
29548;SDS011;16487;53.094;8.800;2023-03-01T04:02:38;19.50;;;12.40;;
29548;SDS011;16487;53.094;8.800;2023-03-01T04:05:06;16.87;;;13.50;;
29548;SDS011;16487;53.094;8.800;2023-03-01T04:07:36;21.33;;;13.77;;
29548;SDS011;16487;53.094;8.800;2023-03-01T04:10:04;16.40;;;14.33;;
29548;SDS011;16487;53.094;8.800;2023-03-01T04:12:34;14.43;;;11.60;;
29548;SDS011;16487;53.094;8.800;2023-03-01T04:15:02;15.20;;;12.50;;
29548;SDS011;16487;53.094;8.800;2023-03-01T04:17:30;14.53;;;11.47;;
29548;SDS011;16487;53.094;8.800;2023-03-01T04:19:58;13.73;;;12.20;;
29548;SDS011;16487;53.094;8.800;2023-03-01T04:22:25;17.40;;;12.30;;
29548;SDS011;16487;53.094;8.800;2023-03-01T04:24:53;16.07;;;11.83;;
29548;SDS011;16487;53.094;8.800;2023-03-01T04:27:21;15.27;;;10.90;;
29548;SDS011;16487;53.094;8.800;2023-03-01T04:29:48;15.37;;;11.07;;
29548;SDS011;16487;53.094;8.800;2023-03-01T04:32:15;19.13;;;14.07;;
29548;SDS011;16487;53.094;8.800;2023-03-01T04:34:43;14.53;;;12.33;;
29548;SDS011;16487;53.094;8.800;2023-03-01T04:37:10;17.50;;;12.27;;
29548;SDS011;16487;53.094;8.800;2023-03-01T04:39:37;14.73;;;11.83;;
29548;SDS011;16487;53.094;8.800;2023-03-01T04:42:06;14.80;;;11.60;;
29548;SDS011;16487;53.094;8.800;2023-03-01T04:44:33;16.30;;;12.00;;
29548;SDS011;16487;53.094;8.800;2023-03-01T04:47:00;21.00;;;13.80;;
29548;SDS011;16487;53.094;8.800;2023-03-01T04:49:28;19.53;;;13.77;;
29548;SDS011;16487;53.094;8.800;2023-03-01T04:51:55;20.60;;;11.43;;
29548;SDS011;16487;53.094;8.800;2023-03-01T04:54:22;24.13;;;12.37;;
29548;SDS011;16487;53.094;8.800;2023-03-01T04:56:49;17.07;;;12.50;;
29548;SDS011;16487;53.094;8.800;2023-03-01T04:59:18;14.37;;;11.50;;
29548;SDS011;16487;53.094;8.800;2023-03-01T05:01:46;17.53;;;11.30;;
29548;SDS011;16487;53.094;8.800;2023-03-01T05:04:13;16.57;;;11.30;;
29548;SDS011;16487;53.094;8.800;2023-03-01T05:06:40;15.77;;;11.37;;
29548;SDS011;16487;53.094;8.800;2023-03-01T05:09:08;16.77;;;11.77;;
29548;SDS011;16487;53.094;8.800;2023-03-01T05:11:35;17.37;;;11.80;;
29548;SDS011;16487;53.094;8.800;2023-03-01T05:14:03;17.60;;;12.57;;
29548;SDS011;16487;53.094;8.800;2023-03-01T05:16:31;24.47;;;15.00;;
29548;SDS011;16487;53.094;8.800;2023-03-01T05:19:02;19.97;;;14.30;;
29548;SDS011;16487;53.094;8.800;2023-03-01T05:21:29;16.63;;;13.20;;
29548;SDS011;16487;53.094;8.800;2023-03-01T05:23:57;20.07;;;14.77;;
29548;SDS011;16487;53.094;8.800;2023-03-01T05:26:24;18.70;;;13.90;;
29548;SDS011;16487;53.094;8.800;2023-03-01T05:28:54;21.07;;;15.07;;
29548;SDS011;16487;53.094;8.800;2023-03-01T05:31:22;17.97;;;13.30;;
29548;SDS011;16487;53.094;8.800;2023-03-01T05:33:51;14.00;;;12.50;;
29548;SDS011;16487;53.094;8.800;2023-03-01T05:36:18;19.97;;;12.70;;
29548;SDS011;16487;53.094;8.800;2023-03-01T05:38:45;17.37;;;11.87;;
29548;SDS011;16487;53.094;8.800;2023-03-01T05:41:13;19.20;;;11.73;;
29548;SDS011;16487;53.094;8.800;2023-03-01T05:43:41;15.20;;;12.63;;
29548;SDS011;16487;53.094;8.800;2023-03-01T05:46:08;18.70;;;13.27;;
29548;SDS011;16487;53.094;8.800;2023-03-01T05:48:36;16.40;;;11.80;;
29548;SDS011;16487;53.094;8.800;2023-03-01T05:51:04;15.70;;;12.87;;
29548;SDS011;16487;53.094;8.800;2023-03-01T05:53:32;16.10;;;12.23;;
29548;SDS011;16487;53.094;8.800;2023-03-01T05:55:59;16.90;;;12.77;;
29548;SDS011;16487;53.094;8.800;2023-03-01T05:58:26;15.80;;;12.40;;
29548;SDS011;16487;53.094;8.800;2023-03-01T06:00:54;17.03;;;13.30;;
29548;SDS011;16487;53.094;8.800;2023-03-01T06:03:23;15.70;;;13.53;;
29548;SDS011;16487;53.094;8.800;2023-03-01T06:05:55;16.63;;;13.87;;
29548;SDS011;16487;53.094;8.800;2023-03-01T06:08:24;18.73;;;14.77;;
29548;SDS011;16487;53.094;8.800;2023-03-01T06:10:51;17.50;;;14.13;;
29548;SDS011;16487;53.094;8.800;2023-03-01T06:13:18;21.80;;;15.73;;
29548;SDS011;16487;53.094;8.800;2023-03-01T06:15:46;16.87;;;14.40;;
29548;SDS011;16487;53.094;8.800;2023-03-01T06:18:13;22.33;;;15.43;;
29548;SDS011;16487;53.094;8.800;2023-03-01T06:20:40;22.93;;;16.97;;
29548;SDS011;16487;53.094;8.800;2023-03-01T06:23:08;32.67;;;18.80;;
29548;SDS011;16487;53.094;8.800;2023-03-01T06:25:37;22.77;;;18.53;;
29548;SDS011;16487;53.094;8.800;2023-03-01T06:28:05;20.17;;;15.10;;
29548;SDS011;16487;53.094;8.800;2023-03-01T06:30:32;18.53;;;16.07;;
29548;SDS011;16487;53.094;8.800;2023-03-01T06:32:59;19.50;;;15.10;;
29548;SDS011;16487;53.094;8.800;2023-03-01T06:35:27;20.20;;;15.00;;
29548;SDS011;16487;53.094;8.800;2023-03-01T06:37:55;22.40;;;16.70;;
29548;SDS011;16487;53.094;8.800;2023-03-01T06:40:22;20.80;;;16.73;;
29548;SDS011;16487;53.094;8.800;2023-03-01T06:42:51;21.53;;;16.67;;
29548;SDS011;16487;53.094;8.800;2023-03-01T06:45:19;21.63;;;17.03;;
29548;SDS011;16487;53.094;8.800;2023-03-01T06:47:47;22.10;;;16.10;;
29548;SDS011;16487;53.094;8.800;2023-03-01T06:50:15;21.00;;;16.80;;
29548;SDS011;16487;53.094;8.800;2023-03-01T06:52:43;17.30;;;14.20;;
29548;SDS011;16487;53.094;8.800;2023-03-01T06:55:10;19.60;;;17.40;;
29548;SDS011;16487;53.094;8.800;2023-03-01T06:57:39;22.73;;;15.90;;
29548;SDS011;16487;53.094;8.800;2023-03-01T07:00:08;20.37;;;15.17;;
29548;SDS011;16487;53.094;8.800;2023-03-01T07:02:36;23.00;;;15.67;;
29548;SDS011;16487;53.094;8.800;2023-03-01T07:05:04;19.50;;;16.20;;
29548;SDS011;16487;53.094;8.800;2023-03-01T07:07:32;16.97;;;13.93;;
29548;SDS011;16487;53.094;8.800;2023-03-01T07:09:59;27.57;;;15.27;;
29548;SDS011;16487;53.094;8.800;2023-03-01T07:12:26;16.80;;;14.47;;
29548;SDS011;16487;53.094;8.800;2023-03-01T07:14:53;19.90;;;15.40;;
29548;SDS011;16487;53.094;8.800;2023-03-01T07:17:22;19.50;;;16.43;;
29548;SDS011;16487;53.094;8.800;2023-03-01T07:19:49;17.37;;;13.17;;
29548;SDS011;16487;53.094;8.800;2023-03-01T07:22:17;17.40;;;14.67;;
29548;SDS011;16487;53.094;8.800;2023-03-01T07:24:44;20.13;;;14.80;;
29548;SDS011;16487;53.094;8.800;2023-03-01T07:27:11;16.93;;;13.90;;
29548;SDS011;16487;53.094;8.800;2023-03-01T07:29:39;17.40;;;14.60;;
29548;SDS011;16487;53.094;8.800;2023-03-01T07:32:06;17.33;;;14.70;;
29548;SDS011;16487;53.094;8.800;2023-03-01T07:34:35;16.27;;;14.47;;
29548;SDS011;16487;53.094;8.800;2023-03-01T07:37:03;19.83;;;14.80;;
29548;SDS011;16487;53.094;8.800;2023-03-01T07:39:30;23.60;;;15.13;;
29548;SDS011;16487;53.094;8.800;2023-03-01T07:41:58;19.60;;;16.63;;
29548;SDS011;16487;53.094;8.800;2023-03-01T07:44:26;25.50;;;17.97;;
29548;SDS011;16487;53.094;8.800;2023-03-01T07:46:53;20.67;;;17.30;;
29548;SDS011;16487;53.094;8.800;2023-03-01T07:49:20;24.93;;;17.67;;
29548;SDS011;16487;53.094;8.800;2023-03-01T07:51:49;24.47;;;18.77;;
29548;SDS011;16487;53.094;8.800;2023-03-01T07:54:16;21.50;;;17.40;;
29548;SDS011;16487;53.094;8.800;2023-03-01T07:56:44;19.97;;;17.10;;
29548;SDS011;16487;53.094;8.800;2023-03-01T07:59:11;28.63;;;18.80;;
29548;SDS011;16487;53.094;8.800;2023-03-01T08:01:38;25.63;;;19.27;;
29548;SDS011;16487;53.094;8.800;2023-03-01T08:04:06;25.00;;;17.70;;
29548;SDS011;16487;53.094;8.800;2023-03-01T08:06:35;26.50;;;18.50;;
29548;SDS011;16487;53.094;8.800;2023-03-01T08:09:04;27.00;;;19.73;;
29548;SDS011;16487;53.094;8.800;2023-03-01T08:11:31;24.23;;;17.60;;
29548;SDS011;16487;53.094;8.800;2023-03-01T08:14:02;22.90;;;17.00;;
29548;SDS011;16487;53.094;8.800;2023-03-01T08:16:29;23.63;;;18.80;;
29548;SDS011;16487;53.094;8.800;2023-03-01T08:18:57;20.53;;;17.43;;
29548;SDS011;16487;53.094;8.800;2023-03-01T08:21:24;22.80;;;17.30;;
29548;SDS011;16487;53.094;8.800;2023-03-01T08:23:51;24.83;;;16.77;;
29548;SDS011;16487;53.094;8.800;2023-03-01T08:26:20;25.13;;;17.73;;
29548;SDS011;16487;53.094;8.800;2023-03-01T08:28:48;29.97;;;20.00;;
29548;SDS011;16487;53.094;8.800;2023-03-01T08:31:18;25.20;;;18.87;;
29548;SDS011;16487;53.094;8.800;2023-03-01T08:33:46;25.50;;;19.63;;
29548;SDS011;16487;53.094;8.800;2023-03-01T08:36:14;20.17;;;17.90;;
29548;SDS011;16487;53.094;8.800;2023-03-01T08:38:41;17.83;;;16.03;;
29548;SDS011;16487;53.094;8.800;2023-03-01T08:41:09;19.37;;;16.23;;
29548;SDS011;16487;53.094;8.800;2023-03-01T08:43:37;23.00;;;16.90;;
29548;SDS011;16487;53.094;8.800;2023-03-01T08:46:05;17.70;;;14.27;;
29548;SDS011;16487;53.094;8.800;2023-03-01T08:48:33;20.33;;;14.77;;
29548;SDS011;16487;53.094;8.800;2023-03-01T08:51:06;18.77;;;15.07;;
29548;SDS011;16487;53.094;8.800;2023-03-01T08:53:34;16.77;;;14.17;;
29548;SDS011;16487;53.094;8.800;2023-03-01T08:56:02;21.93;;;15.87;;
29548;SDS011;16487;53.094;8.800;2023-03-01T08:58:29;19.47;;;14.73;;
29548;SDS011;16487;53.094;8.800;2023-03-01T09:00:58;18.47;;;14.33;;
29548;SDS011;16487;53.094;8.800;2023-03-01T09:03:25;16.83;;;13.00;;
29548;SDS011;16487;53.094;8.800;2023-03-01T09:05:53;15.10;;;11.67;;
29548;SDS011;16487;53.094;8.800;2023-03-01T09:08:27;17.30;;;10.80;;
29548;SDS011;16487;53.094;8.800;2023-03-01T09:10:54;12.33;;;10.80;;
29548;SDS011;16487;53.094;8.800;2023-03-01T09:13:21;13.83;;;10.87;;
29548;SDS011;16487;53.094;8.800;2023-03-01T09:15:49;12.40;;;11.10;;
29548;SDS011;16487;53.094;8.800;2023-03-01T09:18:18;12.07;;;10.87;;
29548;SDS011;16487;53.094;8.800;2023-03-01T09:20:45;12.80;;;9.30;;
29548;SDS011;16487;53.094;8.800;2023-03-01T09:23:12;9.20;;;8.20;;
29548;SDS011;16487;53.094;8.800;2023-03-01T09:25:39;10.67;;;9.30;;
29548;SDS011;16487;53.094;8.800;2023-03-01T09:28:07;10.47;;;8.53;;
29548;SDS011;16487;53.094;8.800;2023-03-01T09:30:41;12.10;;;8.27;;
29548;SDS011;16487;53.094;8.800;2023-03-01T09:33:08;9.63;;;8.30;;
29548;SDS011;16487;53.094;8.800;2023-03-01T09:35:37;9.67;;;8.57;;
29548;SDS011;16487;53.094;8.800;2023-03-01T09:38:04;11.23;;;8.60;;
29548;SDS011;16487;53.094;8.800;2023-03-01T09:40:32;11.03;;;8.57;;
29548;SDS011;16487;53.094;8.800;2023-03-01T09:43:01;13.07;;;9.37;;
29548;SDS011;16487;53.094;8.800;2023-03-01T09:45:35;12.73;;;9.10;;
29548;SDS011;16487;53.094;8.800;2023-03-01T09:48:07;13.10;;;9.87;;
29548;SDS011;16487;53.094;8.800;2023-03-01T09:50:43;11.73;;;9.07;;
29548;SDS011;16487;53.094;8.800;2023-03-01T09:53:13;9.97;;;8.97;;
29548;SDS011;16487;53.094;8.800;2023-03-01T09:55:43;9.03;;;6.07;;
29548;SDS011;16487;53.094;8.800;2023-03-01T10:01:16;8.70;;;4.60;;
29548;SDS011;16487;53.094;8.800;2023-03-01T10:04:00;4.63;;;3.97;;
29548;SDS011;16487;53.094;8.800;2023-03-01T10:06:38;5.20;;;4.20;;
29548;SDS011;16487;53.094;8.800;2023-03-01T10:09:11;4.43;;;4.03;;
29548;SDS011;16487;53.094;8.800;2023-03-01T10:11:43;8.70;;;4.47;;
29548;SDS011;16487;53.094;8.800;2023-03-01T10:14:15;4.90;;;3.83;;
29548;SDS011;16487;53.094;8.800;2023-03-01T10:16:57;4.47;;;3.70;;
29548;SDS011;16487;53.094;8.800;2023-03-01T10:19:28;4.30;;;3.90;;
29548;SDS011;16487;53.094;8.800;2023-03-01T10:22:02;4.70;;;4.30;;
29548;SDS011;16487;53.094;8.800;2023-03-01T10:24:36;7.97;;;4.23;;
29548;SDS011;16487;53.094;8.800;2023-03-01T10:27:05;5.80;;;5.23;;
29548;SDS011;16487;53.094;8.800;2023-03-01T10:29:38;4.53;;;4.13;;
29548;SDS011;16487;53.094;8.800;2023-03-01T10:32:12;6.57;;;5.10;;
29548;SDS011;16487;53.094;8.800;2023-03-01T10:34:39;6.60;;;6.00;;
29548;SDS011;16487;53.094;8.800;2023-03-01T10:37:12;7.80;;;5.97;;
29548;SDS011;16487;53.094;8.800;2023-03-01T10:39:54;7.50;;;6.23;;
29548;SDS011;16487;53.094;8.800;2023-03-01T10:42:25;8.30;;;7.40;;
29548;SDS011;16487;53.094;8.800;2023-03-01T10:44:55;9.10;;;7.70;;
29548;SDS011;16487;53.094;8.800;2023-03-01T10:47:23;10.20;;;7.57;;
29548;SDS011;16487;53.094;8.800;2023-03-01T10:49:56;13.67;;;8.13;;
29548;SDS011;16487;53.094;8.800;2023-03-01T10:52:31;8.50;;;7.60;;
29548;SDS011;16487;53.094;8.800;2023-03-01T10:55:01;9.20;;;8.00;;
29548;SDS011;16487;53.094;8.800;2023-03-01T10:57:32;9.30;;;7.90;;
29548;SDS011;16487;53.094;8.800;2023-03-01T11:00:14;8.80;;;8.00;;
29548;SDS011;16487;53.094;8.800;2023-03-01T11:02:47;10.30;;;9.07;;
29548;SDS011;16487;53.094;8.800;2023-03-01T11:05:17;10.10;;;9.10;;
29548;SDS011;16487;53.094;8.800;2023-03-01T11:07:51;9.40;;;8.43;;
29548;SDS011;16487;53.094;8.800;2023-03-01T11:10:21;10.50;;;9.50;;
29548;SDS011;16487;53.094;8.800;2023-03-01T11:12:51;13.67;;;10.87;;
29548;SDS011;16487;53.094;8.800;2023-03-01T11:15:23;12.67;;;11.47;;
29548;SDS011;16487;53.094;8.800;2023-03-01T11:17:53;11.70;;;10.60;;
29548;SDS011;16487;53.094;8.800;2023-03-01T11:20:35;12.10;;;10.90;;
29548;SDS011;16487;53.094;8.800;2023-03-01T11:23:06;13.50;;;11.67;;
29548;SDS011;16487;53.094;8.800;2023-03-01T11:25:37;11.50;;;10.50;;
29548;SDS011;16487;53.094;8.800;2023-03-01T11:28:10;12.60;;;11.43;;
29548;SDS011;16487;53.094;8.800;2023-03-01T11:30:43;10.90;;;10.00;;
29548;SDS011;16487;53.094;8.800;2023-03-01T11:33:34;11.87;;;10.87;;
29548;SDS011;16487;53.094;8.800;2023-03-01T11:36:07;12.00;;;10.90;;
29548;SDS011;16487;53.094;8.800;2023-03-01T11:38:43;11.77;;;10.60;;
29548;SDS011;16487;53.094;8.800;2023-03-01T11:41:13;11.33;;;10.33;;
29548;SDS011;16487;53.094;8.800;2023-03-01T11:43:45;11.03;;;10.03;;
29548;SDS011;16487;53.094;8.800;2023-03-01T11:52:18;12.03;;;11.03;;
29548;SDS011;16487;53.094;8.800;2023-03-01T11:54:57;13.47;;;12.27;;
29548;SDS011;16487;53.094;8.800;2023-03-01T11:57:42;11.77;;;10.77;;
29548;SDS011;16487;53.094;8.800;2023-03-01T12:00:25;12.13;;;11.17;;
29548;SDS011;16487;53.094;8.800;2023-03-01T12:09:00;10.90;;;10.00;;
29548;SDS011;16487;53.094;8.800;2023-03-01T12:11:49;12.20;;;11.07;;
29548;SDS011;16487;53.094;8.800;2023-03-01T12:14:31;11.20;;;10.20;;
29548;SDS011;16487;53.094;8.800;2023-03-01T12:17:16;11.70;;;10.80;;
29548;SDS011;16487;53.094;8.800;2023-03-01T12:19:59;11.37;;;10.47;;
29548;SDS011;16487;53.094;8.800;2023-03-01T12:22:38;12.87;;;11.87;;
29548;SDS011;16487;53.094;8.800;2023-03-01T12:25:21;13.67;;;11.03;;
29548;SDS011;16487;53.094;8.800;2023-03-01T12:30:54;11.80;;;10.80;;
29548;SDS011;16487;53.094;8.800;2023-03-01T12:33:45;10.57;;;9.77;;
29548;SDS011;16487;53.094;8.800;2023-03-01T12:36:23;10.77;;;9.60;;
29548;SDS011;16487;53.094;8.800;2023-03-01T12:39:08;11.13;;;10.13;;
29548;SDS011;16487;53.094;8.800;2023-03-01T12:41:48;10.40;;;9.60;;
29548;SDS011;16487;53.094;8.800;2023-03-01T12:44:32;11.03;;;10.03;;
29548;SDS011;16487;53.094;8.800;2023-03-01T12:47:26;11.87;;;10.87;;
29548;SDS011;16487;53.094;8.800;2023-03-01T12:50:11;11.63;;;10.53;;
29548;SDS011;16487;53.094;8.800;2023-03-01T12:52:44;11.67;;;10.50;;
29548;SDS011;16487;53.094;8.800;2023-03-01T12:55:18;11.57;;;10.50;;
29548;SDS011;16487;53.094;8.800;2023-03-01T12:57:55;10.83;;;10.03;;
29548;SDS011;16487;53.094;8.800;2023-03-01T13:00:32;11.90;;;10.90;;
29548;SDS011;16487;53.094;8.800;2023-03-01T13:03:10;11.77;;;10.73;;
29548;SDS011;16487;53.094;8.800;2023-03-01T13:05:48;11.10;;;10.20;;
29548;SDS011;16487;53.094;8.800;2023-03-01T13:08:29;11.27;;;10.30;;
29548;SDS011;16487;53.094;8.800;2023-03-01T13:11:03;10.47;;;9.67;;
29548;SDS011;16487;53.094;8.800;2023-03-01T13:13:32;11.03;;;10.03;;
29548;SDS011;16487;53.094;8.800;2023-03-01T13:19:06;11.10;;;10.20;;
29548;SDS011;16487;53.094;8.800;2023-03-01T13:21:35;11.30;;;10.20;;
29548;SDS011;16487;53.094;8.800;2023-03-01T13:24:03;12.07;;;10.80;;
29548;SDS011;16487;53.094;8.800;2023-03-01T13:26:31;11.27;;;10.27;;
29548;SDS011;16487;53.094;8.800;2023-03-01T13:29:45;11.43;;;10.43;;
29548;SDS011;16487;53.094;8.800;2023-03-01T13:32:22;10.83;;;9.93;;
29548;SDS011;16487;53.094;8.800;2023-03-01T13:41:09;10.20;;;9.27;;
29548;SDS011;16487;53.094;8.800;2023-03-01T13:43:37;10.10;;;9.30;;
29548;SDS011;16487;53.094;8.800;2023-03-01T13:46:10;11.23;;;10.37;;
29548;SDS011;16487;53.094;8.800;2023-03-01T13:48:45;12.73;;;11.60;;
29548;SDS011;16487;53.094;8.800;2023-03-01T13:51:20;10.60;;;9.73;;
29548;SDS011;16487;53.094;8.800;2023-03-01T13:53:50;11.73;;;10.73;;
29548;SDS011;16487;53.094;8.800;2023-03-01T13:56:19;12.53;;;11.43;;
29548;SDS011;16487;53.094;8.800;2023-03-01T13:58:49;11.90;;;11.00;;
29548;SDS011;16487;53.094;8.800;2023-03-01T14:01:22;12.57;;;11.67;;
29548;SDS011;16487;53.094;8.800;2023-03-01T14:03:53;12.60;;;11.57;;
29548;SDS011;16487;53.094;8.800;2023-03-01T14:06:21;12.13;;;11.13;;
29548;SDS011;16487;53.094;8.800;2023-03-01T14:08:51;11.57;;;10.53;;
29548;SDS011;16487;53.094;8.800;2023-03-01T14:14:29;12.90;;;11.77;;
29548;SDS011;16487;53.094;8.800;2023-03-01T14:17:12;13.00;;;11.93;;
29548;SDS011;16487;53.094;8.800;2023-03-01T14:19:53;13.03;;;11.93;;
29548;SDS011;16487;53.094;8.800;2023-03-01T14:22:23;14.13;;;12.97;;
29548;SDS011;16487;53.094;8.800;2023-03-01T14:24:51;12.60;;;11.40;;
29548;SDS011;16487;53.094;8.800;2023-03-01T14:27:22;12.27;;;11.37;;
29548;SDS011;16487;53.094;8.800;2023-03-01T14:29:55;15.10;;;13.87;;
29548;SDS011;16487;53.094;8.800;2023-03-01T14:32:25;14.10;;;12.90;;
29548;SDS011;16487;53.094;8.800;2023-03-01T14:34:54;13.47;;;12.37;;
29548;SDS011;16487;53.094;8.800;2023-03-01T14:37:24;12.80;;;11.80;;
29548;SDS011;16487;53.094;8.800;2023-03-01T14:39:54;12.90;;;11.80;;
29548;SDS011;16487;53.094;8.800;2023-03-01T14:42:22;13.13;;;12.10;;
29548;SDS011;16487;53.094;8.800;2023-03-01T14:44:52;12.80;;;11.90;;
29548;SDS011;16487;53.094;8.800;2023-03-01T14:47:25;13.80;;;12.47;;
29548;SDS011;16487;53.094;8.800;2023-03-01T14:49:57;12.83;;;11.80;;
29548;SDS011;16487;53.094;8.800;2023-03-01T14:52:31;13.30;;;12.30;;
29548;SDS011;16487;53.094;8.800;2023-03-01T14:55:02;13.47;;;12.40;;
29548;SDS011;16487;53.094;8.800;2023-03-01T14:57:32;12.63;;;11.53;;
29548;SDS011;16487;53.094;8.800;2023-03-01T15:00:00;13.80;;;12.70;;
29548;SDS011;16487;53.094;8.800;2023-03-01T15:02:31;13.30;;;12.10;;
29548;SDS011;16487;53.094;8.800;2023-03-01T15:05:01;12.63;;;11.60;;
29548;SDS011;16487;53.094;8.800;2023-03-01T15:07:34;14.27;;;13.07;;
29548;SDS011;16487;53.094;8.800;2023-03-01T15:10:04;14.90;;;13.47;;
29548;SDS011;16487;53.094;8.800;2023-03-01T15:12:34;13.50;;;12.50;;
29548;SDS011;16487;53.094;8.800;2023-03-01T15:17:48;15.53;;;14.13;;
29548;SDS011;16487;53.094;8.800;2023-03-01T15:20:20;14.37;;;13.17;;